Raritan, IL (61471)

7:57 PM CDT on July 29, 2014 (GMT -0500)
Burgus Computers (KILSTRON1) Elev 680 ft | 40.74 °N, 90.91 °W | Change Station

Current weather conditions updated 2 seconds ago

Clear
Clear
74.2 °F
Feels Like 77 °F
N
2.4
Wind Variable Wind from WNW
Gusts 3.5 mph

Tomorrow is forecast to be nearly the same temperature as today.

Today
High -- | Low -- °F
--% Chance of Precip.
Yesterday
High -- | Low -- °F
Precip. -- in
5:57 AM 8:21 PM
Waxing Crescent, 8% visible
Pressure 30.08 in
Visibility 10.0 miles
Clouds Clear
Heat Index 77 °F
Dew Point 61 °F
Humidity 64%
Rainfall 0.00 in
Snow Depth Not available.
UV 0.0 out of 12
Pollen 6.60 out of 12
Air Quality Not available.
Flu Activity Not available.
METAR KMQB 300035Z AUTO 26005KT 10SM CLR 22/16 A3008 RMK AO2 T02160164

More Conditions Fewer Conditions

Pressure 30.08 in
Visibility 10.0 miles
Clouds Clear
Heat Index 77 °F
Dew Point 61 °F
Humidity 64%
Rainfall 0.00 in
Snow Depth Not available.
UV 0.0 out of 12
Pollen 6.60 out of 12
Air Quality Not available.
Flu Activity Not available.
METAR KMQB 300035Z AUTO 26005KT 10SM CLR 22/16 A3008 RMK AO2 T02160164

More Conditions Fewer Conditions

10-Day Weather Forecast

Almanac

Astronomy

Jul. 29, 2014 Rise Set
Actual Time 5:57 AM CDT 8:21 PM CDT
Civil Twilight 5:26 AM CDT 8:52 PM CDT
Nautical Twilight 4:47 AM CDT 9:30 PM CDT
Astronomical Twilight 4:05 AM CDT 10:13 PM CDT
Moon 8:35 AM CDT (7/29) 9:33 PM CDT (7/29)
Length of Visible Light 15h 26m
Length of Day
14h 24m
Tomorrow will be 1m 57s shorter.
Waxing Crescent, 8% of the Moon is Illuminated
Today
Waxing Crescent
Aug 3
First Quarter
Aug 10
Full
Aug 17
Last Quarter
Aug 25
New

Today's Extremes

State Highs State Lows

Community

WunderPhotos

Upload Photos

1,738,924 photos uploaded!

Nearby

Snow Depth

Station Depth Elevation
No new snow has been reported.

Earthquake Activity

City Distance Mag. Time & Date
No recent earthquake activity has been reported nearby.
Minimum magnitude displayed is 2.5.

Coastal Water Temperatures

Place Temperature
No Stations Reporting

Nearby Weather Stations

Station Location Temp. Heat Index Dew Point Humidity Wind Precip. Elev Updated Type
Burgus Computers, Stronghurst, IL 74.2 °F 77 °F 61 °F 64% WNW  at  2.4 mph 0.00 in / hr 680 ft 7:57 PM CDT Rapid Fire
CPS, Biggsville, IL 72.1 °F 74 °F 63 °F 72% West  at  3.0 mph 0.00 in / hr 659 ft 7:57 PM CDT Normal
WIU Harry Mussatto Golf Course, Macomb, IL 72.8 °F 75 °F 61 °F 67% West  at  4.0 mph 0.00 in / hr 712 ft 7:52 PM CDT Normal
Spirit Hollow GC, Burlington, IA 73.8 °F 77 °F 40 °F 30% WSW  at  0.0 mph 0.00 in / hr 650 ft 7:57 PM CDT Rapid Fire
Cameron, Cameron, IL 70.6 °F 72 °F 63 °F 78% WNW  at  0.0 mph 0.00 in / hr 768 ft 7:52 PM CDT Normal
Chem Gro Inc., Adrian, IL 73.0 °F 77 °F 57 °F 58% WNW  at  4.9 mph 0.00 in / hr 705 ft 7:57 PM CDT Rapid Fire
East of Bentley, Carthage, IL 72.2 °F 74 °F 63 °F 73% West  at  1.0 mph 0.00 in / hr 650 ft 7:55 PM CDT Normal

Show More Stations Show Fewer Stations